Time;durP1;ratioP1;P1;durP2;ratioP2;P2;SDS_P1;SDS_P2;PMS_P1;PMS_P2;Temp;Humidity;BMP_temperature;BMP_pressure;BME280_temperature;BME280_humidity;BME280_pressure;Samples;Min_cycle;Max_cycle;Signal;HPM_P1;HPM_P2
2023/10/14 00:00:28;;;;;;;1.60;0.60;;;14.10;99.90;;;;;;4978835;28;89810;-32
2023/10/14 00:02:54;;;;;;;2.25;0.82;;;14.10;99.90;;;;;;4977875;28;89984;-33
2023/10/14 00:05:23;;;;;;;2.08;0.90;;;14.10;99.90;;;;;;4978442;28;90190;-32
2023/10/14 00:07:52;;;;;;;2.25;1.38;;;14.00;99.90;;;;;;4978852;28;89459;-35
2023/10/14 00:10:18;;;;;;;1.48;0.70;;;14.00;99.90;;;;;;4977753;28;90497;-35
2023/10/14 00:12:52;;;;;;;0.88;0.60;;;14.00;99.90;;;;;;4978809;28;89525;-32
2023/10/14 00:15:19;;;;;;;1.40;0.80;;;14.10;99.90;;;;;;4977671;28;88403;-34
2023/10/14 00:17:45;;;;;;;5.05;0.82;;;14.10;99.90;;;;;;4978079;28;89289;-34
2023/10/14 00:20:10;;;;;;;0.68;0.68;;;14.00;99.90;;;;;;4981447;28;91809;-33
2023/10/14 00:22:39;;;;;;;4.22;0.95;;;14.00;99.90;;;;;;4981809;28;89838;-31
2023/10/14 00:25:11;;;;;;;2.10;0.52;;;14.00;99.90;;;;;;4981841;28;89471;-35
2023/10/14 00:27:37;;;;;;;1.58;0.60;;;14.00;99.90;;;;;;4981356;28;89955;-32
2023/10/14 00:30:11;;;;;;;3.42;0.95;;;14.00;99.90;;;;;;5000147;28;89227;-32
2023/10/14 00:32:38;;;;;;;1.73;1.10;;;14.00;99.90;;;;;;4986338;28;90094;-33
2023/10/14 00:35:10;;;;;;;2.55;0.95;;;13.90;99.90;;;;;;4982502;28;89117;-35
2023/10/14 00:37:36;;;;;;;3.47;0.95;;;13.90;99.90;;;;;;4983814;28;88258;-31
2023/10/14 00:40:12;;;;;;;4.18;1.50;;;13.90;99.90;;;;;;4993060;28;90715;-35
2023/10/14 00:42:38;;;;;;;1.40;1.25;;;13.80;99.90;;;;;;4980199;28;90179;-32
2023/10/14 00:45:09;;;;;;;2.53;1.35;;;13.80;99.90;;;;;;4981297;28;89559;-32
2023/10/14 00:47:39;;;;;;;3.58;1.10;;;13.80;99.90;;;;;;4981136;28;88438;-34
2023/10/14 00:50:22;;;;;;;4.90;1.30;;;13.80;99.90;;;;;;4981049;28;90017;-35
2023/10/14 00:52:54;;;;;;;4.20;1.83;;;13.80;99.90;;;;;;4976642;28;89584;-34
2023/10/14 00:55:26;;;;;;;2.90;1.35;;;13.70;99.90;;;;;;4985835;28;89356;-32
2023/10/14 00:57:54;;;;;;;4.55;1.70;;;13.70;99.90;;;;;;4981471;28;89027;-33
2023/10/14 01:00:33;;;;;;;1.98;1.30;;;13.60;99.90;;;;;;4980319;28;90220;-31
2023/10/14 01:03:01;;;;;;;8.77;1.63;;;13.60;99.90;;;;;;4963185;28;89255;-34
2023/10/14 01:05:29;;;;;;;4.10;1.77;;;13.60;99.90;;;;;;4981115;28;89211;-35
2023/10/14 01:07:58;;;;;;;4.32;1.70;;;13.50;99.90;;;;;;4981320;28;90464;-32
2023/10/14 01:10:25;;;;;;;5.40;2.05;;;13.50;99.90;;;;;;4969025;28;89939;-32
2023/10/14 01:12:55;;;;;;;4.47;1.77;;;13.40;99.90;;;;;;4980898;28;90068;-33
2023/10/14 01:15:21;;;;;;;5.93;2.30;;;13.40;99.90;;;;;;4980642;28;88881;-32
2023/10/14 01:17:48;;;;;;;8.02;2.88;;;13.40;99.90;;;;;;4980074;28;88972;-32
2023/10/14 01:22:43;;;;;;;4.28;1.45;;;13.30;99.90;;;;;;4980574;28;89077;-35
2023/10/14 01:25:15;;;;;;;4.60;1.20;;;13.30;99.90;;;;;;4980752;28;90348;-33
2023/10/14 01:27:44;;;;;;;10.95;2.20;;;13.20;99.90;;;;;;4980422;28;88752;-34
2023/10/14 01:30:25;;;;;;;1.85;1.20;;;13.30;99.90;;;;;;4993348;28;90435;-31
2023/10/14 01:33:11;;;;;;;4.88;1.60;;;13.20;99.90;;;;;;4964541;28;90565;-34
2023/10/14 01:35:41;;;;;;;6.72;2.30;;;13.10;99.90;;;;;;4988459;28;89983;-34
2023/10/14 01:38:07;;;;;;;7.35;2.30;;;13.00;99.90;;;;;;4981516;28;90114;-31
2023/10/14 01:40:36;;;;;;;7.07;2.47;;;13.00;99.90;;;;;;4980130;28;90487;-34
2023/10/14 01:43:06;;;;;;;6.68;2.60;;;12.90;99.90;;;;;;4961987;28;89873;-35
2023/10/14 01:45:40;;;;;;;5.95;2.50;;;12.80;99.90;;;;;;4979624;28;89434;-32
2023/10/14 01:50:44;;;;;;;9.30;2.08;;;12.80;99.90;;;;;;4980037;28;89452;-32
2023/10/14 01:53:11;;;;;;;11.35;2.75;;;12.70;99.90;;;;;;4973170;28;89962;-32
2023/10/14 01:55:41;;;;;;;10.05;2.50;;;12.70;99.90;;;;;;4982315;28;89514;-32
2023/10/14 01:58:10;;;;;;;10.02;2.88;;;12.60;99.90;;;;;;4980504;28;89545;-32
2023/10/14 02:00:37;;;;;;;10.45;3.42;;;12.60;99.90;;;;;;4985595;28;89991;-34
2023/10/14 02:03:06;;;;;;;6.80;2.88;;;12.50;99.90;;;;;;4999918;28;89409;-31
2023/10/14 02:05:40;;;;;;;8.60;2.70;;;12.50;99.90;;;;;;4966820;28;89594;-33
2023/10/14 02:08:15;;;;;;;6.75;2.42;;;12.40;99.90;;;;;;4979937;28;88476;-33
2023/10/14 02:10:46;;;;;;;4.90;2.88;;;12.40;99.90;;;;;;4962066;28;90869;-34
2023/10/14 02:13:17;;;;;;;8.88;2.60;;;12.30;99.90;;;;;;4980680;28;89778;-34
2023/10/14 02:15:46;;;;;;;8.57;2.60;;;12.20;99.90;;;;;;4967877;28;88982;-32
2023/10/14 02:18:21;;;;;;;9.38;2.88;;;12.20;99.90;;;;;;4979635;28;90025;-32
2023/10/14 02:20:56;;;;;;;6.93;2.90;;;12.10;99.90;;;;;;4979419;28;90549;-33
2023/10/14 02:23:44;;;;;;;11.23;2.65;;;12.10;99.90;;;;;;4979101;28;90201;-35
2023/10/14 02:26:25;;;;;;;9.07;2.47;;;12.00;99.90;;;;;;4980537;28;90538;-33
2023/10/14 02:28:52;;;;;;;9.23;2.60;;;12.00;99.90;;;;;;4968649;28;89636;-35
2023/10/14 02:33:57;;;;;;;11.05;2.67;;;12.00;99.90;;;;;;4979233;28;89729;-34
2023/10/14 02:36:29;;;;;;;9.57;2.33;;;11.90;99.90;;;;;;4992648;28;89801;-34
2023/10/14 02:38:57;;;;;;;5.25;2.53;;;11.90;99.90;;;;;;4980278;28;89637;-33
2023/10/14 02:41:27;;;;;;;5.97;2.25;;;11.90;99.90;;;;;;4979016;28;90276;-32
2023/10/14 02:46:31;;;;;;;15.23;3.15;;;11.90;99.90;;;;;;4990207;28;91298;-33
2023/10/14 02:49:02;;;;;;;9.80;2.67;;;11.80;99.90;;;;;;4978227;28;90391;-32
2023/10/14 02:51:44;;;;;;;7.75;3.25;;;11.70;99.90;;;;;;4979461;28;90350;-35
2023/10/14 02:54:26;;;;;;;7.15;3.05;;;11.70;99.90;;;;;;4979130;28;88463;-33
2023/10/14 02:57:14;;;;;;;9.02;3.05;;;11.70;99.90;;;;;;4978854;28;89411;-31
2023/10/14 03:02:14;;;;;;;10.35;2.65;;;11.60;99.90;;;;;;4997855;28;90539;-32
2023/10/14 03:07:50;;;;;;;7.53;2.50;;;11.50;99.90;;;;;;4976665;28;88539;-33
2023/10/14 03:12:49;;;;;;;6.35;2.85;;;11.40;99.90;;;;;;4978980;28;91465;-32
2023/10/14 03:15:19;;;;;;;13.63;2.80;;;11.40;99.90;;;;;;4991873;28;90455;-35
2023/10/14 03:17:53;;;;;;;7.43;3.05;;;11.40;99.90;;;;;;4989162;28;90580;-34
2023/10/14 03:22:54;;;;;;;5.43;2.13;;;11.30;99.90;;;;;;4978700;28;89231;-34
2023/10/14 03:25:23;;;;;;;6.72;3.28;;;11.20;99.90;;;;;;4979374;28;90985;-33
2023/10/14 03:27:59;;;;;;;7.82;2.78;;;11.20;99.90;;;;;;4979028;28;89677;-35
2023/10/14 03:30:25;;;;;;;7.80;2.88;;;11.20;99.90;;;;;;4966412;28;89261;-35
2023/10/14 03:32:50;;;;;;;8.93;2.80;;;11.10;99.90;;;;;;4980096;28;90406;-32
2023/10/14 03:35:20;;;;;;;11.63;1.92;;;11.10;99.90;;;;;;4979831;28;89724;-31
2023/10/14 03:38:00;;;;;;;6.00;2.90;;;11.00;99.90;;;;;;4978710;28;91098;-33
2023/10/14 03:43:09;;;;;;;8.73;2.28;;;11.00;99.90;;;;;;4980693;28;90515;-33
2023/10/14 03:45:46;;;;;;;7.07;2.33;;;11.00;99.90;;;;;;4969957;28;89544;-34
2023/10/14 03:48:13;;;;;;;9.70;3.13;;;10.90;99.90;;;;;;4983492;28;89427;-31
2023/10/14 03:50:39;;;;;;;4.45;2.03;;;10.90;99.90;;;;;;4984990;28;89517;-32
2023/10/14 03:53:08;;;;;;;7.25;2.10;;;10.80;99.90;;;;;;4982221;28;89078;-35
2023/10/14 03:55:33;;;;;;;8.13;2.75;;;10.80;99.90;;;;;;4984415;28;90790;-34
2023/10/14 03:58:05;;;;;;;6.97;2.95;;;10.80;99.90;;;;;;4964703;28;89985;-35
2023/10/14 04:00:37;;;;;;;9.02;3.28;;;10.80;99.90;;;;;;4986241;28;87971;-33
2023/10/14 04:03:14;;;;;;;9.55;2.63;;;10.70;99.90;;;;;;4974641;28;90340;-32
2023/10/14 04:05:52;;;;;;;5.28;1.98;;;10.70;99.90;;;;;;4985533;28;90297;-33
2023/10/14 04:08:29;;;;;;;8.77;2.53;;;10.60;99.90;;;;;;4983090;28;89396;-32
2023/10/14 04:11:09;;;;;;;10.33;3.20;;;10.60;99.90;;;;;;4981187;28;89829;-33
2023/10/14 04:13:35;;;;;;;10.68;3.40;;;10.60;99.90;;;;;;4981637;28;90716;-31
2023/10/14 04:16:01;;;;;;;8.02;2.22;;;10.60;99.90;;;;;;4981137;28;89083;-35
2023/10/14 04:18:28;;;;;;;9.27;3.17;;;10.50;99.90;;;;;;4982400;28;89868;-35
2023/10/14 04:23:48;;;;;;;14.10;2.45;;;10.50;99.90;;;;;;4979518;28;90606;-32
2023/10/14 04:26:14;;;;;;;9.07;2.63;;;10.40;99.90;;;;;;4981912;28;89012;-35
2023/10/14 04:28:53;;;;;;;3.47;2.47;;;10.40;99.90;;;;;;4978046;28;89401;-35
2023/10/14 04:31:38;;;;;;;3.30;1.70;;;10.30;99.90;;;;;;4991209;28;88630;-32
2023/10/14 04:34:06;;;;;;;8.48;2.85;;;10.30;99.90;;;;;;4977161;28;91594;-32
2023/10/14 04:39:15;;;;;;;7.95;3.10;;;10.30;99.90;;;;;;4982278;28;91142;-33
2023/10/14 04:41:55;;;;;;;12.88;3.38;;;10.30;99.90;;;;;;4978664;28;88030;-34
2023/10/14 04:44:28;;;;;;;10.98;3.13;;;10.30;99.90;;;;;;4978657;28;91589;-32
2023/10/14 04:47:01;;;;;;;5.20;1.67;;;10.20;99.90;;;;;;4972131;28;88554;-31
2023/10/14 04:49:42;;;;;;;10.77;2.42;;;10.20;99.90;;;;;;4977927;28;88512;-32
2023/10/14 04:52:08;;;;;;;10.40;1.63;;;10.20;99.90;;;;;;4979017;28;89747;-32
2023/10/14 04:54:34;;;;;;;10.20;2.38;;;10.10;99.90;;;;;;4988583;28;88373;-34
2023/10/14 04:57:20;;;;;;;8.60;2.05;;;10.10;99.90;;;;;;4977483;28;90720;-31
2023/10/14 04:59:51;;;;;;;11.82;3.53;;;10.10;99.90;;;;;;4977842;28;91013;-33
2023/10/14 05:02:20;;;;;;;7.82;3.13;;;10.10;99.90;;;;;;4960688;28;89658;-34
2023/10/14 05:04:50;;;;;;;6.20;2.47;;;10.10;99.90;;;;;;4979817;28;89730;-32
2023/10/14 05:07:16;;;;;;;9.38;3.33;;;10.10;99.90;;;;;;4981707;28;89627;-32
2023/10/14 05:09:49;;;;;;;9.98;3.08;;;10.10;99.90;;;;;;4980446;28;90176;-33
2023/10/14 05:12:24;;;;;;;4.85;1.38;;;10.10;99.90;;;;;;4980204;28;89422;-32
2023/10/14 05:14:49;;;;;;;3.28;2.13;;;10.00;99.90;;;;;;4963278;28;90517;-33
2023/10/14 05:17:16;;;;;;;10.52;3.00;;;10.00;99.90;;;;;;4981169;28;89685;-32
2023/10/14 05:19:43;;;;;;;9.85;2.88;;;10.00;99.90;;;;;;4980579;28;89557;-32
2023/10/14 05:22:19;;;;;;;10.82;2.95;;;10.10;99.90;;;;;;4980658;28;90125;-35
2023/10/14 05:24:49;;;;;;;15.43;3.20;;;10.00;99.90;;;;;;4980469;28;89078;-35
2023/10/14 05:27:35;;;;;;;7.43;2.92;;;10.00;99.90;;;;;;4981300;28;90330;-34
2023/10/14 05:30:06;;;;;;;5.80;2.53;;;10.00;99.90;;;;;;4961820;28;88450;-35
2023/10/14 05:32:32;;;;;;;5.53;2.25;;;10.00;99.90;;;;;;4982148;28;89400;-33
2023/10/14 05:34:59;;;;;;;11.82;2.65;;;10.00;99.90;;;;;;4980142;28;90337;-33
2023/10/14 05:37:26;;;;;;;8.15;2.28;;;9.90;99.90;;;;;;4980979;28;89501;-36
2023/10/14 05:39:54;;;;;;;9.20;3.05;;;10.00;99.90;;;;;;4981601;28;90010;-31
2023/10/14 05:42:24;;;;;;;;;;;10.00;99.90;;;;;;4981922;28;89153;-31
2023/10/14 05:44:57;;;;;;;3.60;1.20;;;9.90;99.90;;;;;;4982061;28;90177;-35
2023/10/14 05:47:27;;;;;;;8.10;2.70;;;9.90;99.90;;;;;;5028004;22;88649;-35
2023/10/14 05:49:53;;;;;;;23.23;3.47;;;9.90;99.90;;;;;;5000324;28;90523;-36
2023/10/14 05:52:23;;;;;;;6.32;1.83;;;9.90;99.90;;;;;;4998908;28;89699;-32
2023/10/14 05:54:50;;;;;;;4.28;1.85;;;9.90;99.90;;;;;;5000343;28;90461;-33
2023/10/14 05:57:17;;;;;;;4.63;1.40;;;9.80;99.90;;;;;;5000533;28;88722;-36
2023/10/14 05:59:43;;;;;;;6.68;1.35;;;9.80;99.90;;;;;;5000366;28;88304;-32
2023/10/14 06:02:12;;;;;;;8.00;2.78;;;9.80;99.90;;;;;;4999888;28;88076;-34
2023/10/14 06:04:42;;;;;;;7.85;2.50;;;9.80;99.90;;;;;;4997978;28;88751;-33
2023/10/14 06:07:12;;;;;;;5.50;3.28;;;9.90;99.90;;;;;;4989283;28;91911;-33
2023/10/14 06:09:38;;;;;;;6.60;2.92;;;9.80;99.90;;;;;;4997100;28;90236;-31
2023/10/14 06:12:12;;;;;;;8.30;4.00;;;9.80;99.90;;;;;;5001305;28;89091;-32
2023/10/14 06:14:42;;;;;;;18.45;3.72;;;9.80;99.90;;;;;;4995423;28;90312;-35
2023/10/14 06:17:08;;;;;;;2.80;1.40;;;9.80;99.90;;;;;;5011564;27;89815;-33
2023/10/14 06:19:36;;;;;;;10.43;3.15;;;9.80;99.90;;;;;;5015304;28;89473;-34
2023/10/14 06:22:02;;;;;;;7.28;2.97;;;9.80;99.90;;;;;;5007165;28;89121;-33
2023/10/14 06:24:33;;;;;;;5.65;2.92;;;9.90;99.90;;;;;;5008025;28;90600;-31
2023/10/14 06:27:08;;;;;;;6.95;1.67;;;9.80;99.90;;;;;;4996012;28;89201;-31
2023/10/14 06:29:34;;;;;;;4.95;1.88;;;9.90;99.90;;;;;;4997323;28;89853;-36
2023/10/14 06:32:02;;;;;;;4.82;2.20;;;9.80;99.90;;;;;;4998183;28;89613;-31
2023/10/14 06:34:32;;;;;;;11.05;3.08;;;9.90;99.90;;;;;;4997135;28;88815;-31
2023/10/14 06:37:01;;;;;;;4.53;1.50;;;10.00;99.90;;;;;;4995775;28;90454;-31
2023/10/14 06:39:27;;;;;;;15.25;3.15;;;10.00;99.90;;;;;;4996180;28;90626;-32
2023/10/14 06:41:53;;;;;;;6.70;1.92;;;10.00;99.90;;;;;;4997348;28;89966;-33
2023/10/14 06:44:26;;;;;;;10.57;4.20;;;10.00;99.90;;;;;;4996022;28;90240;-35
2023/10/14 06:46:53;;;;;;;16.70;2.92;;;10.00;99.90;;;;;;5001230;28;89752;-32
2023/10/14 06:49:22;;;;;;;4.95;1.70;;;10.00;99.90;;;;;;4996335;28;88666;-34
2023/10/14 06:51:51;;;;;;;11.27;2.55;;;10.00;99.90;;;;;;4996771;28;89132;-31
2023/10/14 06:54:25;;;;;;;22.67;2.90;;;10.00;99.90;;;;;;4996876;28;88639;-34
2023/10/14 06:56:52;;;;;;;2.65;1.40;;;10.00;99.90;;;;;;4958852;28;89880;-33
2023/10/14 06:59:17;;;;;;;8.13;2.72;;;10.10;99.90;;;;;;4990926;28;90056;-33
2023/10/14 07:01:43;;;;;;;13.07;2.60;;;10.10;99.90;;;;;;4996122;28;90557;-34
2023/10/14 07:04:12;;;;;;;13.20;3.15;;;10.10;99.90;;;;;;4995259;28;90298;-35
2023/10/14 07:06:38;;;;;;;13.02;3.20;;;10.10;99.90;;;;;;4997442;28;88884;-32
2023/10/14 07:09:16;;;;;;;12.60;2.28;;;10.20;99.90;;;;;;4996279;28;89528;-31
2023/10/14 07:11:45;;;;;;;14.20;3.30;;;10.20;99.90;;;;;;4969012;28;90878;-33
2023/10/14 07:14:11;;;;;;;3.85;1.95;;;10.20;99.90;;;;;;4996471;28;90312;-34
2023/10/14 07:16:37;;;;;;;11.77;3.38;;;10.30;99.90;;;;;;4996819;28;90049;-34
2023/10/14 07:19:02;;;;;;;6.60;2.67;;;10.30;99.90;;;;;;4995825;28;89511;-32
2023/10/14 07:21:29;;;;;;;8.52;2.25;;;10.40;99.90;;;;;;4996978;28;89324;-35
2023/10/14 07:23:55;;;;;;;5.80;1.50;;;10.40;99.90;;;;;;4996358;28;90506;-35
2023/10/14 07:26:22;;;;;;;3.83;1.50;;;10.40;99.90;;;;;;5002037;28;91091;-36
2023/10/14 07:28:51;;;;;;;8.00;2.42;;;10.50;99.90;;;;;;4996075;28;90363;-32
2023/10/14 07:31:19;;;;;;;3.97;1.73;;;10.50;99.90;;;;;;4997068;28;89612;-33
2023/10/14 07:33:45;;;;;;;10.55;3.60;;;10.60;99.90;;;;;;4995631;28;89449;-32
2023/10/14 07:36:11;;;;;;;9.82;3.30;;;10.70;99.90;;;;;;4995924;28;89996;-32
2023/10/14 07:38:37;;;;;;;5.57;2.20;;;10.80;99.90;;;;;;4996307;28;89256;-33
2023/10/14 07:41:05;;;;;;;14.38;2.75;;;10.80;99.90;;;;;;4995665;28;89522;-32
2023/10/14 07:43:33;;;;;;;4.22;3.58;;;10.90;99.90;;;;;;4979230;28;90484;-32
2023/10/14 07:46:00;;;;;;;6.25;1.85;;;11.00;99.90;;;;;;4992327;28;90874;-34
2023/10/14 07:48:27;;;;;;;7.70;2.10;;;11.10;99.90;;;;;;4998419;28;89490;-32
2023/10/14 07:50:56;;;;;;;11.25;2.88;;;11.10;99.90;;;;;;5001821;28;90886;-35
2023/10/14 07:53:25;;;;;;;9.95;2.90;;;11.20;99.90;;;;;;4995489;28;91819;-34
2023/10/14 07:55:56;;;;;;;4.68;1.75;;;11.30;99.90;;;;;;5004631;28;90409;-33
2023/10/14 07:58:26;;;;;;;8.77;2.17;;;11.30;99.90;;;;;;5002569;28;89556;-32
2023/10/14 08:00:54;;;;;;;10.07;3.65;;;11.40;99.90;;;;;;4995433;28;88000;-35
2023/10/14 08:03:23;;;;;;;5.25;2.72;;;11.50;99.90;;;;;;4995518;28;89180;-32
2023/10/14 08:05:59;;;;;;;10.35;2.92;;;11.60;99.90;;;;;;4996776;28;89191;-34
2023/10/14 08:08:31;;;;;;;3.70;1.90;;;11.70;99.90;;;;;;4998147;28;88854;-33
2023/10/14 08:11:00;;;;;;;3.00;2.47;;;11.80;99.90;;;;;;4990426;28;89860;-35
2023/10/14 08:13:27;;;;;;;9.63;4.03;;;11.80;99.90;;;;;;4994870;28;90782;-35
2023/10/14 08:15:54;;;;;;;6.50;2.60;;;11.90;99.90;;;;;;4994471;28;90642;-35
2023/10/14 08:18:25;;;;;;;9.00;2.22;;;12.00;99.90;;;;;;4995514;28;90634;-34
2023/10/14 08:20:55;;;;;;;11.93;3.45;;;12.10;99.90;;;;;;4996005;28;89283;-34
2023/10/14 08:23:25;;;;;;;12.10;3.08;;;12.10;99.90;;;;;;4997728;28;90563;-34
2023/10/14 08:25:54;;;;;;;9.00;2.17;;;12.20;99.90;;;;;;5003184;28;90010;-33
2023/10/14 08:28:21;;;;;;;10.43;2.95;;;12.30;99.90;;;;;;4990143;28;90074;-35
2023/10/14 08:30:49;;;;;;;9.15;2.92;;;12.40;99.90;;;;;;4976779;28;89214;-35
2023/10/14 08:33:16;;;;;;;4.65;2.03;;;12.50;99.90;;;;;;4976743;28;90001;-33
2023/10/14 08:35:42;;;;;;;12.85;3.15;;;12.60;99.90;;;;;;4990206;28;90013;-32
2023/10/14 08:38:11;;;;;;;12.77;3.28;;;12.60;99.90;;;;;;4995784;28;88909;-32
2023/10/14 08:40:39;;;;;;;12.98;4.00;;;12.70;99.90;;;;;;4997550;28;90305;-33
2023/10/14 08:43:09;;;;;;;12.48;3.88;;;12.70;99.90;;;;;;4994478;28;89364;-35
2023/10/14 08:45:40;;;;;;;13.35;3.47;;;12.80;99.90;;;;;;4998464;28;90360;-32
2023/10/14 08:48:08;;;;;;;10.70;2.97;;;12.80;99.90;;;;;;4998460;28;88979;-34
2023/10/14 08:50:35;;;;;;;5.45;1.67;;;12.90;99.90;;;;;;4998570;28;89468;-32
2023/10/14 08:53:05;;;;;;;6.28;2.78;;;12.90;99.90;;;;;;4998589;28;90215;-34
2023/10/14 08:55:33;;;;;;;9.77;3.00;;;13.00;99.90;;;;;;4997457;28;90509;-35
2023/10/14 08:58:04;;;;;;;10.85;2.97;;;13.10;99.90;;;;;;5000024;28;90221;-35
2023/10/14 09:00:31;;;;;;;6.35;2.80;;;13.20;99.90;;;;;;4998722;28;88844;-35
2023/10/14 09:03:00;;;;;;;8.80;2.97;;;13.20;99.90;;;;;;4997587;28;90058;-33
2023/10/14 09:05:26;;;;;;;9.35;2.90;;;13.30;99.90;;;;;;4997837;28;89476;-33
2023/10/14 09:07:55;;;;;;;10.45;3.13;;;13.40;99.90;;;;;;4998940;28;89777;-32
2023/10/14 09:10:24;;;;;;;8.43;3.08;;;13.50;99.90;;;;;;4996623;28;89826;-33
2023/10/14 09:13:10;;;;;;;14.20;3.03;;;13.50;99.90;;;;;;5006390;28;91514;-34
2023/10/14 09:15:41;;;;;;;11.15;4.13;;;13.60;99.90;;;;;;4998382;28;89634;-33
2023/10/14 09:18:21;;;;;;;15.57;4.47;;;13.60;99.90;;;;;;4997213;28;89136;-34
2023/10/14 09:20:55;;;;;;;11.20;3.38;;;13.60;99.90;;;;;;4987458;28;88523;-34
2023/10/14 09:23:33;;;;;;;18.70;3.95;;;13.70;99.90;;;;;;4986085;28;90949;-34
2023/10/14 09:26:03;;;;;;;14.07;2.92;;;13.70;99.90;;;;;;4997542;28;89419;-35
2023/10/14 09:28:34;;;;;;;10.98;2.97;;;13.80;99.90;;;;;;4997227;28;89757;-34
2023/10/14 09:31:02;;;;;;;13.10;2.63;;;13.90;99.90;;;;;;4998090;28;88446;-35
2023/10/14 09:33:34;;;;;;;12.05;3.47;;;13.90;99.90;;;;;;4997511;28;89816;-33
2023/10/14 09:36:11;;;;;;;3.47;1.67;;;13.90;99.90;;;;;;4997568;28;89864;-32
2023/10/14 09:38:38;;;;;;;6.55;2.63;;;14.00;99.90;;;;;;4987453;28;88942;-34
2023/10/14 09:41:05;;;;;;;9.75;2.75;;;14.10;99.90;;;;;;4996771;28;89397;-34
2023/10/14 09:43:33;;;;;;;11.83;3.07;;;14.10;99.90;;;;;;4997619;28;89754;-33
2023/10/14 09:46:00;;;;;;;6.07;1.83;;;14.10;99.90;;;;;;5000713;28;90135;-33
2023/10/14 09:48:29;;;;;;;11.98;3.38;;;14.10;99.90;;;;;;5000164;28;89002;-31
2023/10/14 09:50:55;;;;;;;13.30;3.55;;;14.20;99.90;;;;;;4999456;28;89865;-34
2023/10/14 09:53:28;;;;;;;11.05;2.92;;;14.30;99.90;;;;;;5004373;28;90128;-34
2023/10/14 09:55:54;;;;;;;9.02;2.63;;;14.40;99.90;;;;;;4994373;28;89764;-32
2023/10/14 09:58:23;;;;;;;8.23;3.70;;;14.40;99.90;;;;;;5008115;28;90446;-32
2023/10/14 10:00:49;;;;;;;14.68;3.10;;;14.40;99.90;;;;;;4997033;28;89385;-34
2023/10/14 10:03:19;;;;;;;5.82;2.40;;;14.40;99.90;;;;;;4997679;28;89522;-33
2023/10/14 10:06:04;;;;;;;4.72;1.80;;;14.40;99.90;;;;;;4998056;28;90539;-35
2023/10/14 10:09:04;;;;;;;10.95;3.03;;;14.40;99.90;;;;;;4980093;28;89338;-34
2023/10/14 10:11:33;;;;;;;5.88;1.90;;;14.30;99.90;;;;;;4997844;28;89332;-35
2023/10/14 10:13:59;;;;;;;7.18;2.17;;;14.10;99.90;;;;;;4997881;28;89879;-33
2023/10/14 10:16:31;;;;;;;8.93;2.33;;;14.10;99.90;;;;;;4997116;28;90093;-34
2023/10/14 10:19:00;;;;;;;4.53;2.17;;;14.10;99.90;;;;;;4997139;28;89867;-34
2023/10/14 10:21:34;;;;;;;8.82;2.65;;;14.10;99.90;;;;;;4999415;28;89920;-34
2023/10/14 10:24:02;;;;;;;12.20;2.85;;;14.10;99.90;;;;;;4992912;28;90762;-35
2023/10/14 10:27:03;;;;;;;6.05;1.92;;;14.00;99.90;;;;;;4997313;28;88056;-35
2023/10/14 10:29:33;;;;;;;8.80;1.92;;;13.90;99.90;;;;;;4994789;28;88580;-34
2023/10/14 10:32:09;;;;;;;6.30;1.70;;;13.80;99.90;;;;;;4998476;28;88970;-34
2023/10/14 10:34:53;;;;;;;10.82;2.58;;;13.90;99.90;;;;;;4999469;28;90571;-36
2023/10/14 10:37:19;;;;;;;10.95;2.10;;;14.00;99.90;;;;;;4988922;28;89251;-34
2023/10/14 10:39:50;;;;;;;7.10;2.35;;;14.10;99.90;;;;;;4998969;28;90369;-33
2023/10/14 10:42:16;;;;;;;11.65;2.88;;;14.20;99.90;;;;;;4999184;28;88441;-33
2023/10/14 10:44:43;;;;;;;12.88;3.30;;;14.40;99.90;;;;;;5001407;28;89927;-35
2023/10/14 10:47:12;;;;;;;3.45;2.15;;;14.50;99.90;;;;;;4998567;28;92403;-34
2023/10/14 10:49:56;;;;;;;8.10;2.10;;;14.70;99.90;;;;;;5001450;28;90422;-34
2023/10/14 10:52:24;;;;;;;11.48;2.10;;;14.90;99.90;;;;;;4998172;28;89080;-34
2023/10/14 10:54:51;;;;;;;4.78;1.35;;;15.00;99.90;;;;;;4996884;28;90464;-35
2023/10/14 10:57:17;;;;;;;6.10;1.77;;;15.00;99.90;;;;;;4997991;28;89201;-32
2023/10/14 10:59:43;;;;;;;5.00;1.55;;;15.10;99.90;;;;;;4997781;28;89856;-34
2023/10/14 11:02:11;;;;;;;5.05;1.95;;;14.80;99.90;;;;;;4998304;28;89022;-32
2023/10/14 11:04:39;;;;;;;6.93;1.70;;;14.80;99.90;;;;;;4998598;28;90243;-34
2023/10/14 11:07:12;;;;;;;5.10;1.73;;;14.80;99.90;;;;;;4999578;28;89524;-35
2023/10/14 11:09:41;;;;;;;3.42;1.70;;;14.70;99.90;;;;;;4997959;28;89703;-34
2023/10/14 11:12:09;;;;;;;2.80;1.58;;;14.30;99.90;;;;;;4997316;28;89340;-33
2023/10/14 11:14:34;;;;;;;;;;;14.20;99.90;;;;;;4997551;28;90407;-31
2023/10/14 11:17:00;;;;;;;13.35;1.95;;;13.80;99.90;;;;;;4998064;28;90213;-35
2023/10/14 11:19:30;;;;;;;3.22;1.95;;;13.60;99.90;;;;;;4997333;28;89505;-34
2023/10/14 11:21:58;;;;;;;1.88;1.00;;;13.40;99.90;;;;;;4996559;28;87538;-33
2023/10/14 11:24:26;;;;;;;8.27;1.98;;;13.30;99.90;;;;;;4996218;28;89920;-33
2023/10/14 11:26:53;;;;;;;5.15;1.42;;;13.10;99.90;;;;;;4997471;28;89797;-32
2023/10/14 11:29:24;;;;;;;5.45;1.65;;;13.10;99.90;;;;;;4996619;28;89526;-34
2023/10/14 11:31:57;;;;;;;6.57;2.08;;;13.20;99.90;;;;;;4994187;28;89273;-35
2023/10/14 11:34:24;;;;;;;3.45;1.55;;;13.30;99.90;;;;;;4996774;28;90393;-36
2023/10/14 11:36:50;;;;;;;5.18;2.08;;;13.40;99.90;;;;;;4995231;28;90261;-33
2023/10/14 11:39:18;;;;;;;6.88;1.90;;;13.50;99.90;;;;;;4995164;28;90421;-33
2023/10/14 11:41:45;;;;;;;6.55;1.90;;;13.60;99.90;;;;;;4997130;28;90360;-34
2023/10/14 11:44:11;;;;;;;7.05;1.40;;;13.60;99.90;;;;;;4995323;28;91953;-33
2023/10/14 11:46:40;;;;;;;3.65;1.23;;;13.80;99.90;;;;;;4994688;28;89720;-34
2023/10/14 11:49:15;;;;;;;5.97;2.17;;;13.90;99.90;;;;;;4995677;28;90151;-35
2023/10/14 11:51:41;;;;;;;5.50;1.38;;;14.00;99.90;;;;;;4996543;28;88791;-35
2023/10/14 11:54:08;;;;;;;3.17;1.17;;;14.10;99.90;;;;;;4994465;28;91139;-33
2023/10/14 11:56:33;;;;;;;7.10;1.73;;;14.20;99.90;;;;;;4996125;28;89321;-34
2023/10/14 11:59:00;;;;;;;6.50;2.00;;;14.30;99.90;;;;;;5001273;28;89183;-35
2023/10/14 12:01:28;;;;;;;6.47;1.35;;;14.40;99.90;;;;;;5001418;28;89582;-32
2023/10/14 12:03:54;;;;;;;6.72;2.90;;;14.60;99.90;;;;;;5006598;28;89349;-34
2023/10/14 12:06:20;;;;;;;8.07;2.13;;;14.70;99.90;;;;;;5002452;28;89179;-35
2023/10/14 12:08:46;;;;;;;8.07;2.67;;;14.60;99.90;;;;;;4994676;28;89309;-37
2023/10/14 12:11:13;;;;;;;3.33;1.20;;;14.40;99.90;;;;;;4995492;28;90683;-32
2023/10/14 12:13:40;;;;;;;4.30;1.58;;;14.40;99.90;;;;;;4994924;28;89855;-33
2023/10/14 12:16:06;;;;;;;5.57;1.63;;;14.30;99.90;;;;;;4997533;28;90026;-34
2023/10/14 12:18:35;;;;;;;4.53;2.00;;;14.20;99.90;;;;;;4998671;28;89114;-35
2023/10/14 12:21:02;;;;;;;6.40;1.40;;;14.10;99.90;;;;;;4999452;28;88911;-35
2023/10/14 12:23:31;;;;;;;4.03;1.77;;;14.10;99.90;;;;;;4998973;28;90075;-34
2023/10/14 12:25:58;;;;;;;3.17;1.60;;;13.90;99.90;;;;;;4998294;28;91580;-36
2023/10/14 12:28:30;;;;;;;6.17;1.67;;;13.70;99.90;;;;;;4998610;28;90142;-33
2023/10/14 12:30:58;;;;;;;5.78;1.58;;;13.70;99.90;;;;;;4998342;28;89868;-34
2023/10/14 12:33:35;;;;;;;7.60;1.25;;;13.70;99.90;;;;;;4998460;28;92279;-33
2023/10/14 12:36:14;;;;;;;3.88;1.48;;;13.60;99.90;;;;;;4993136;28;89353;-32
2023/10/14 12:38:42;;;;;;;7.43;1.85;;;13.60;99.90;;;;;;5001340;28;89379;-35
2023/10/14 12:41:21;;;;;;;7.43;2.38;;;13.70;99.90;;;;;;5001149;28;89678;-34
2023/10/14 12:43:50;;;;;;;5.68;1.52;;;13.70;99.90;;;;;;4998996;28;89181;-34
2023/10/14 12:48:43;;;;;;;11.82;3.22;;;13.90;99.90;;;;;;4998060;28;89658;-33
2023/10/14 12:51:11;;;;;;;5.80;1.60;;;13.80;99.90;;;;;;4980447;28;89749;-33
2023/10/14 12:53:47;;;;;;;5.47;1.88;;;13.70;99.90;;;;;;4996917;28;89849;-33
2023/10/14 12:56:21;;;;;;;4.80;1.45;;;13.60;99.90;;;;;;4998951;28;89879;-35
2023/10/14 12:58:48;;;;;;;7.53;2.45;;;13.70;99.90;;;;;;4997420;28;89715;-35
2023/10/14 13:01:17;;;;;;;5.78;2.63;;;13.70;99.90;;;;;;5009507;28;88335;-32
2023/10/14 13:03:46;;;;;;;9.90;2.60;;;13.70;99.90;;;;;;4994375;28;90422;-34
2023/10/14 13:06:12;;;;;;;7.63;2.92;;;13.70;99.90;;;;;;4998666;28;90281;-36
2023/10/14 13:08:38;;;;;;;9.50;3.35;;;13.60;99.90;;;;;;4997512;28;89232;-33
2023/10/14 13:11:04;;;;;;;7.47;2.70;;;13.50;99.90;;;;;;5001119;28;88628;-34
2023/10/14 13:13:29;;;;;;;8.30;2.20;;;13.50;99.90;;;;;;4998923;28;89394;-33
2023/10/14 13:15:55;;;;;;;15.52;3.83;;;13.50;99.90;;;;;;4997252;28;90341;-33
2023/10/14 13:18:24;;;;;;;6.28;2.30;;;13.60;99.90;;;;;;4999133;28;90767;-35
2023/10/14 13:20:50;;;;;;;5.93;2.72;;;13.60;99.90;;;;;;4998971;28;87694;-34
2023/10/14 13:23:15;;;;;;;8.27;2.78;;;13.60;99.90;;;;;;4997253;28;90725;-32
2023/10/14 13:25:41;;;;;;;4.97;2.40;;;13.60;99.90;;;;;;4997466;28;89645;-35
2023/10/14 13:28:11;;;;;;;9.55;3.10;;;13.60;99.90;;;;;;4998698;28;89010;-33
2023/10/14 13:30:47;;;;;;;9.43;3.67;;;13.60;99.90;;;;;;5007680;28;89745;-34